Latest Coastal Weather Observations for Darwin Airport

IDD60701

Issued at 8:31 am CST Tuesday 25 April 2017 (issued every 10 minutes, with the page automatically refreshed every 10 minutes)

About coastal observations | Map of coastal stations | Coastal observations for NT | Marine services | Other Formats
Station Details ID: 014015 Name: DARWIN AIRPORT Lat: -12.42 Lon: 130.89 Height: 30.4 m
Data from the previous 72 hours. | See also: Recent months at Darwin Airport
Date/Time
CST
Temp
°C
Wind Pressure Rain since
9am
mm
Weather Cloud Vis
km
Sea
Height
m
Swell
Dir  Spd
kts
Gust
kts
hPa Trend Height
m
Period
s
Dir
25/08:00am 26.1 E 4 5 1011.1 - 0.0 - Mostly clear 10 - - - -
25/07:30am 24.6 E 3 4 1010.8 - 0.0 - Mostly clear 10 - - - -
25/07:00am 24.2 ENE 2 3 1010.6 - 0.0 - Mostly clear 10 - - - -
25/06:30am 24.2 ENE 2 3 1010.4 - 0.0 - Mostly clear 10 - - - -
25/06:00am 24.2 ENE 1 3 1010.1 F 0.0 Fine Mostly clear 22 - - - -
25/05:30am 24.6 CALM 0 0 1009.8 - 0.0 - - 10 - - - -
25/05:00am 24.8 ENE 1 1 1009.8 - 0.0 - - 10 - - - -
25/04:30am 24.9 ENE 1 2 1009.8 - 0.0 - Mostly clear 10 - - - -
25/04:00am 25.1 ESE 1 3 1009.9 - 0.0 - Mostly clear 10 - - - -
25/03:30am 25.6 E 2 2 1009.9 - 0.0 - Mostly clear 10 - - - -
25/03:00am 25.7 ENE 2 3 1010.1 F 0.0 Fine Partly cloudy 30 - - - -
25/02:30am 25.8 ENE 3 5 1010.3 - 0.0 - Partly cloudy 10 - - - -
25/02:00am 25.6 CALM 0 0 1010.6 - 0.0 - Mostly clear 10 - - - -
25/01:30am 25.8 CALM 0 0 1011.0 - 0.0 - Mostly clear 10 - - - -
25/01:00am 25.7 CALM 0 0 1011.3 - 0.0 - Mostly clear 10 - - - -
25/12:30am 25.9 NW 1 2 1011.4 - 0.0 - - 10 - - - -
25/12:00am 26.0 W 3 4 1011.6 F 0.0 Fine Partly cloudy 30 - - - -
 
Date/Time
CST
Temp
°C
Wind Pressure Rain since
9am
mm
Weather Cloud Vis
km
Sea
Height
m
Swell
Dir  Spd
kts
Gust
kts
hPa Trend Height
m
Period
s
Dir
24/11:30pm 26.0 WNW 2 2 1011.9 - 0.0 - - 10 - - - -
24/11:00pm 26.4 W 2 3 1012.0 - 0.0 - - 10 - - - -
24/10:30pm 26.4 NW 2 3 1012.2 - 0.0 - - 10 - - - -
24/10:00pm 26.9 NW 2 3 1012.2 - 0.0 - - 10 - - - -
24/09:30pm 27.0 NNW 3 4 1012.2 - 0.0 - - 10 - - - -
24/09:00pm 27.4 NNW 3 4 1012.0 R 0.0 Fine Partly cloudy 30 - - - -
24/08:30pm 27.7 N 3 4 1011.7 - 0.0 - - 10 - - - -
24/08:00pm 27.8 NNW 3 4 1011.1 - 0.0 - - 10 - - - -
24/07:30pm 28.5 NW 4 5 1010.5 - 0.0 - - 10 - - - -
24/07:00pm 29.1 NW 4 5 1010.1 - 0.0 - - 10 - - - -
24/06:30pm 29.4 NW 6 7 1009.7 - 0.0 - - 10 - - - -
24/06:00pm 29.8 NW 6 7 1009.3 R 0.0 Fine Mostly cloudy 30 - - - -
24/05:30pm 30.8 NW 6 8 1008.8 - 0.0 - - 10 - - - -
24/05:00pm 30.9 NW 8 10 1008.8 - 0.0 - - 10 - - - -
24/04:30pm 31.3 NW 7 11 1008.7 - 0.0 - - 10 - - - -
24/04:00pm 33.0 NNW 5 8 1008.5 - 0.0 - - 10 - - - -
24/03:30pm 33.7 ENE 8 13 1008.6 - 0.0 - Partly cloudy 10 - - - -
24/03:00pm 33.9 E 7 11 1008.9 S 0.0 Fine Partly cloudy 30 - - - -
24/02:30pm 33.5 ENE 10 15 1009.2 - 0.0 - Mostly clear 10 - - - -
24/02:00pm 33.7 E 9 14 1009.4 - 0.0 - Mostly clear 10 - - - -
24/01:30pm 33.4 ESE 11 17 1009.6 - 0.0 - Mostly clear 10 - - - -
24/01:00pm 32.8 E 11 16 1010.0 - 0.0 - Mostly clear 10 - - - -
24/12:30pm 32.1 ESE 8 19 1010.6 - 0.0 - Mostly clear 10 - - - -
24/12:00pm 31.9 SE 6 10 1011.2 F 0.0 Fine Mostly clear 30 - - - -
24/11:30am 30.7 SE 6 10 1012.0 - 0.0 - Mostly clear 10 - - - -
24/11:00am 30.2 SSW 4 7 1012.7 - 0.0 - Mostly clear 10 - - - -
24/10:30am 30.1 S 5 7 1012.7 - 0.0 - Mostly clear 10 - - - -
24/10:00am 29.8 S 4 6 1012.6 - 0.0 - Mostly clear 10 - - - -
24/09:30am 28.5 S 4 8 1012.3 - 0.0 - Mostly clear 10 - - - -
24/09:00am 28.3 SSW 3 4 1012.3 R 0.0 Fine Partly cloudy 30 - - - -
24/08:30am 27.5 S 4 5 1012.1 - 0.0 - Mostly clear 10 - - - -
24/08:00am 27.0 S 2 3 1011.9 - 0.0 - Mostly clear 10 - - - -
24/07:30am 25.1 SSE 1 2 1011.4 - 0.0 - Mostly clear 10 - - - -
24/07:00am 24.9 SSE 3 4 1011.1 - 0.0 - Mostly clear 10 - - - -
24/06:30am 24.9 SSE 3 4 1010.5 - 0.0 - Mostly clear 10 - - - -
24/06:00am 24.9 SE 2 3 1010.2 F 0.0 Fine Mostly clear 30 - - - -
24/05:30am 24.9 SSE 2 3 1010.0 - 0.0 - Mostly clear 10 - - - -
24/05:00am 24.5 CALM 0 0 1010.0 - 0.0 - Mostly clear 10 - - - -
24/04:30am 24.6 SE 1 2 1010.1 - 0.0 - Mostly clear 10 - - - -
24/04:00am 24.8 SE 1 2 1010.2 - 0.0 - Mostly clear 10 - - - -
24/03:30am 24.9 ESE 2 2 1010.3 - 0.0 - Mostly clear 10 - - - -
24/03:00am 25.1 E 2 3 1010.4 F 0.0 Fine Mostly clear 30 - - - -
24/02:30am 25.5 ESE 3 4 1010.5 - 0.0 - - 10 - - - -
24/02:00am 26.1 S 3 5 1010.8 - 0.0 - Mostly clear 10 - - - -
24/01:38am 25.7 SE 3 4 1011.0 - 0.0 - - 6 - - - -
24/01:30am 25.5 ESE 2 3 1011.2 - 0.0 - - 10 - - - -
24/01:00am 26.2 SSE 3 5 1011.4 - 0.0 - - 10 - - - -
24/12:30am 25.3 SSE 2 4 1011.7 - 0.0 - - 10 - - - -
24/12:00am 25.9 SSE 3 3 1011.8 F 0.0 Fine Mostly clear 30 - - - -
 
Date/Time
CST
Temp
°C
Wind Pressure Rain since
9am
mm
Weather Cloud Vis
km
Sea
Height
m
Swell
Dir  Spd
kts
Gust
kts
hPa Trend Height
m
Period
s
Dir
23/11:30pm 26.3 S 3 4 1012.0 - 0.0 - - 10 - - - -
23/11:00pm 25.8 CALM 0 1 1012.1 - 0.0 - - 10 - - - -
23/10:30pm 25.9 NNE 2 3 1012.1 - 0.0 - - 10 - - - -
23/10:00pm 26.4 CALM 0 0 1012.2 - 0.0 - - 10 - - - -
23/09:30pm 26.7 CALM 0 2 1012.1 - 0.0 - - 10 - - - -
23/09:00pm 27.3 N 2 3 1011.9 R 0.0 Fine Mostly clear 30 - - - -
23/08:30pm 27.7 N 3 4 1011.5 - 0.0 - - 10 - - - -
23/08:00pm 28.1 N 4 6 1011.3 - 0.0 - - 10 - - - -
23/07:30pm 28.4 N 5 7 1010.9 - 0.0 - - 10 - - - -
23/07:00pm 28.8 N 6 7 1010.4 - 0.0 - - 10 - - - -
23/06:30pm 29.2 N 6 8 1010.1 - 0.0 - - 10 - - - -
23/06:00pm 30.0 NNW 6 8 1009.9 R 0.0 Smoke Mostly clear 30 - - - -
23/05:30pm 30.5 NNW 8 9 1009.6 - 0.0 - - 10 - - - -
23/05:00pm 30.9 NNW 9 12 1009.3 - 0.0 - - 10 - - - -
23/04:30pm 30.9 NNW 8 10 1009.1 - 0.0 - Partly cloudy 10 - - - -
23/04:00pm 30.6 NNW 8 11 1009.2 - 0.0 - Partly cloudy 10 - - - -
23/03:30pm 32.1 WNW 7 9 1008.9 - 0.0 - Partly cloudy 10 - - - -
23/03:00pm 32.9 NW 8 11 1009.3 F 0.0 Fine Mostly clear 30 - - - -
23/02:30pm 32.3 WNW 7 10 1009.6 - 0.0 - Partly cloudy 10 - - - -
23/02:00pm 33.3 WNW 9 12 1009.9 - 0.0 - - 10 - - - -
23/01:30pm 32.5 SSW 5 10 1010.2 - 0.0 - - 10 - - - -
23/01:00pm 32.1 SE 7 10 1010.6 - 0.0 - - 10 - - - -
23/12:30pm 32.3 ENE 6 12 1011.2 - 0.0 - Mostly clear 10 - - - -
23/12:00pm 31.1 E 7 12 1011.8 R 0.0 Fine Partly cloudy 30 - - - -
23/11:30am 31.0 E 7 10 1012.1 - 0.0 - Mostly clear 10 - - - -
23/11:00am 30.7 ENE 9 12 1012.5 - 0.0 - Mostly clear 10 - - - -
23/10:30am 30.1 ENE 6 13 1012.6 - 0.0 - Mostly clear 10 - - - -
23/10:00am 29.8 NE 3 6 1012.5 - 0.0 - Mostly clear 10 - - - -
23/09:30am 29.0 E 3 4 1012.2 - 0.0 - Mostly clear 10 - - - -
23/09:00am 27.9 ENE 2 3 1011.9 R 0.0 Fine Partly cloudy 30 - - - -
23/08:30am 26.8 E 2 3 1011.8 - 0.0 - Mostly clear 10 - - - -
23/08:00am 26.2 E 3 4 1011.5 - 0.0 - Mostly clear 10 - - - -
23/07:30am 25.4 E 4 6 1011.2 - 0.0 - Mostly clear 10 - - - -
23/07:00am 24.4 ESE 2 3 1010.7 - 0.0 Fog patches Mostly clear 10 - - - -
23/06:30am 24.5 ENE 1 1 1010.4 - 0.0 - Mostly clear 10 - - - -
23/06:00am 24.6 ENE 3 6 1010.2 R 0.0 Fine Mostly clear 30 - - - -
23/05:30am 24.8 E 3 4 1010.1 - 0.0 - - 10 - - - -
23/05:00am 25.1 SSE 3 4 1009.9 - 0.0 - - 10 - - - -
23/04:30am 25.1 SSW 1 2 1009.6 - 0.0 - - 10 - - - -
23/04:00am 24.6 CALM 0 0 1009.7 - 0.0 - - 10 - - - -
23/03:30am 24.7 CALM 0 0 1009.8 - 0.0 - - 10 - - - -
23/03:00am 25.1 SSW 1 2 1009.8 F 0.0 Fine Clear 30 - - - -
23/02:30am 25.3 CALM 0 0 1010.0 - 0.0 - - 10 - - - -
23/02:00am 25.6 CALM 0 0 1010.4 - 0.0 - - 10 - - - -
23/01:30am 25.7 CALM 0 1 1010.8 - 0.0 - - 10 - - - -
23/01:00am 26.1 SSW 1 2 1011.1 - 0.0 - - 10 - - - -
23/12:30am 26.1 CALM 0 0 1011.4 - 0.0 - - 10 - - - -
23/12:00am 26.8 CALM 0 0 1011.7 F 0.0 Fine Mostly clear 30 - - - -
 
Date/Time
CST
Temp
°C
Wind Pressure Rain since
9am
mm
Weather Cloud Vis
km
Sea
Height
m
Swell
Dir  Spd
kts
Gust
kts
hPa Trend Height
m
Period
s
Dir
22/11:30pm 26.8 SSW 1 2 1012.0 - 0.0 - Partly cloudy 10 - - - -
22/11:00pm 27.2 SW 3 3 1012.0 - 0.0 - Partly cloudy 10 - - - -
22/10:30pm 28.1 WSW 3 3 1012.2 - 0.0 - Partly cloudy 10 - - - -
22/10:00pm 27.9 WNW 2 3 1012.3 - 0.0 - Partly cloudy 10 - - - -
22/09:30pm 28.3 W 3 4 1011.9 - 0.0 - Partly cloudy 10 - - - -
22/09:00pm 28.4 W 4 5 1011.6 R 0.0 Fine Partly cloudy 30 - - - -
22/08:30pm 28.5 WNW 4 5 1011.2 - 0.0 - Partly cloudy 10 - - - -
22/08:00pm 28.8 NW 5 6 1010.9 - 0.0 - Partly cloudy 10 - - - -
22/07:30pm 29.0 NW 5 8 1010.5 - 0.0 - Partly cloudy 10 - - - -
22/07:00pm 29.0 WNW 6 7 1009.9 - 0.0 - Partly cloudy 10 - - - -
22/06:30pm 29.1 WNW 7 9 1009.6 - 0.0 - Partly cloudy 10 - - - -
22/06:00pm 29.8 NW 7 9 1009.3 R 0.0 Fine Mostly clear 30 - - - -
22/05:30pm 30.2 NW 6 8 1008.9 - 0.0 - Partly cloudy 10 - - - -
22/05:00pm 32.0 NNW 7 9 1008.5 - 0.0 - Partly cloudy 10 - - - -
22/04:30pm 31.5 NNW 7 8 1008.1 - 0.0 - Partly cloudy 10 - - - -
22/04:00pm 32.9 NNW 5 8 1008.1 - 0.0 - Partly cloudy 10 - - - -
22/03:30pm 32.5 S 3 6 1008.4 - 0.0 - Partly cloudy 10 - - - -
22/03:00pm 32.9 E 7 9 1008.6 F 0.0 Fine Partly cloudy 30 - - - -
22/02:30pm 32.0 ESE 7 11 1009.1 - 0.0 - Partly cloudy 10 - - - -
22/02:00pm 32.9 SSE 8 11 1009.3 - 0.0 - Partly cloudy 10 - - - -
22/01:30pm 32.7 E 8 13 1009.9 - 0.0 - Mostly clear 10 - - - -
22/01:00pm 31.8 ESE 8 13 1010.4 - 0.0 - Partly cloudy 10 - - - -
22/12:30pm 31.4 ESE 7 13 1011.0 - 0.0 - Mostly clear 10 - - - -
22/12:00pm 31.6 SE 6 13 1011.5 F 0.0 Fine Mostly clear 30 - - - -
22/11:30am 31.0 ESE 7 14 1011.9 - 0.0 - Mostly clear 10 - - - -
22/11:00am 31.0 ENE 7 10 1012.2 - 0.0 - Mostly clear 10 - - - -
22/10:30am 30.5 E 4 8 1012.4 - 0.0 - Mostly clear 10 - - - -
22/10:00am 30.0 E 4 8 1012.7 - 0.0 - Mostly clear 10 - - - -
22/09:30am 29.9 NE 5 10 1012.6 - 0.0 - Mostly clear 10 - - - -
22/09:00am 29.4 E 2 3 1012.5 R 0.2 Fine Mostly clear 30 - - - -

Other Formats:

Comma delimited format used in spreadsheet applications
http://www.bom.gov.au/fwo/IDD60701/IDD60701.94120.axf

JavaScript Object Notation format (JSON) in row-major order
http://www.bom.gov.au/fwo/IDD60701/IDD60701.94120.json